Terminal Aerodrome Forecast
Issued by NWS

Home | Current Version | Previous Version | Text Only | Print | Product List | Glossary On
Versions: 1 2 3 4 5 6 7 8 9 10 11 12 13 14 15 16
000
FTUS45 KTFX 041136
TAFLWT
TAF
KLWT 041136Z 0412/0512 23018KT P6SM BKN150
     FM041800 23016G28KT P6SM SCT060 BKN100
     FM050000 27014KT 2SM -SN OVC035
      TEMPO 0500/0504 3/4SM -SN BR OVC015
     FM050400 31010KT 3/4SM -SN BR OVC010=

USA.gov is the U.S. government's official web portal to all federal, state and local government web resources and services.